Time;durP1;ratioP1;P1;durP2;ratioP2;P2;SDS_P1;SDS_P2;PMS_P1;PMS_P2;Temp;Humidity;BMP_temperature;BMP_pressure;BME280_temperature;BME280_humidity;BME280_pressure;Samples;Min_cycle;Max_cycle;Signal;HPM_P1;HPM_P2
2023/05/29 00:00:39;;;;;;;9.82;4.32;;;16.40;88.50;;;;;;5061854;28;20630;-74
2023/05/29 00:03:28;;;;;;;9.88;3.92;;;16.30;88.80;;;;;;5059395;28;20225;-72
2023/05/29 00:06:17;;;;;;;12.35;4.70;;;16.40;89.50;;;;;;5056855;28;20220;-73
2023/05/29 00:09:08;;;;;;;10.10;4.07;;;16.20;89.50;;;;;;5059081;28;20234;-79
2023/05/29 00:11:56;;;;;;;11.57;4.30;;;16.30;90.10;;;;;;5055066;28;20278;-78
2023/05/29 00:14:45;;;;;;;8.18;3.88;;;16.30;90.20;;;;;;5059006;28;20217;-78
2023/05/29 00:17:34;;;;;;;11.35;4.05;;;16.30;90.00;;;;;;5060393;28;20217;-79
2023/05/29 00:20:23;;;;;;;8.52;4.43;;;16.10;90.20;;;;;;5063967;28;20231;-80
2023/05/29 00:23:14;;;;;;;10.32;4.35;;;16.20;90.40;;;;;;5060438;28;20746;-81
2023/05/29 00:26:04;;;;;;;9.02;4.32;;;16.20;90.40;;;;;;5062243;28;20232;-78
2023/05/29 00:28:53;;;;;;;10.82;4.60;;;16.00;90.30;;;;;;5055068;28;20232;-80
2023/05/29 00:31:42;;;;;;;9.38;4.53;;;16.00;90.90;;;;;;5062334;28;20313;-81
2023/05/29 00:34:31;;;;;;;7.43;4.55;;;16.00;90.90;;;;;;5064587;28;20223;-81
2023/05/29 00:37:21;;;;;;;10.48;4.57;;;16.10;90.90;;;;;;5058544;28;20696;-79
2023/05/29 00:40:11;;;;;;;9.40;4.85;;;16.00;91.40;;;;;;5058890;28;20228;-79
2023/05/29 00:43:01;;;;;;;12.90;5.03;;;16.00;91.40;;;;;;5058727;28;20611;-79
2023/05/29 00:45:51;;;;;;;7.78;4.63;;;16.00;91.60;;;;;;5070653;28;20209;-79
2023/05/29 00:48:41;;;;;;;12.52;4.97;;;16.00;91.90;;;;;;5049243;28;20333;-79
2023/05/29 00:51:32;;;;;;;13.07;4.82;;;15.90;91.80;;;;;;5064590;28;20228;-80
2023/05/29 00:54:24;;;;;;;10.90;4.70;;;15.90;92.10;;;;;;5062790;28;20319;-79
2023/05/29 00:57:15;;;;;;;10.30;4.90;;;15.80;91.90;;;;;;5053875;28;20749;-79
2023/05/29 01:00:08;;;;;;;11.93;5.10;;;15.80;92.30;;;;;;5051167;28;20247;-80
2023/05/29 01:02:58;;;;;;;18.65;5.78;;;15.80;92.20;;;;;;5056242;28;20220;-81
2023/05/29 01:05:47;;;;;;;11.90;4.88;;;15.80;93.20;;;;;;5074467;28;20263;-83
2023/05/29 01:08:40;;;;;;;10.95;4.85;;;15.60;92.70;;;;;;5061105;28;20671;-82
2023/05/29 01:11:37;;;;;;;12.27;4.72;;;15.80;93.40;;;;;;5052771;28;20248;-79
2023/05/29 01:14:37;;;;;;;7.68;5.00;;;15.60;93.30;;;;;;5053956;28;20715;-80
2023/05/29 01:17:35;;;;;;;11.15;5.10;;;15.60;93.50;;;;;;5064132;28;20252;-81
2023/05/29 01:20:33;;;;;;;14.15;5.70;;;15.40;94.00;;;;;;5066225;28;20294;-82
2023/05/29 01:23:49;;;;;;;11.07;5.38;;;15.60;94.20;;;;;;5054948;28;20238;-82
2023/05/29 01:26:49;;;;;;;10.85;5.28;;;15.40;94.10;;;;;;5063631;28;20315;-82
2023/05/29 01:29:42;;;;;;;10.27;5.45;;;15.40;94.20;;;;;;5062926;28;20215;-79
2023/05/29 01:32:32;;;;;;;14.93;5.63;;;15.50;94.40;;;;;;5060913;28;20252;-79
2023/05/29 01:35:21;;;;;;;14.98;5.97;;;15.50;94.70;;;;;;5066164;28;20223;-78
2023/05/29 01:38:10;;;;;;;11.05;5.68;;;15.60;94.90;;;;;;5059972;28;20216;-78
2023/05/29 01:40:59;;;;;;;13.63;5.85;;;15.50;94.60;;;;;;5062786;28;20245;-79
2023/05/29 01:43:50;;;;;;;10.93;5.47;;;15.60;95.20;;;;;;5058254;28;20251;-80
2023/05/29 01:46:40;;;;;;;11.88;6.45;;;15.40;95.00;;;;;;5076523;28;20284;-79
2023/05/29 01:49:30;;;;;;;14.48;5.57;;;15.40;95.10;;;;;;5068128;28;20254;-75
2023/05/29 01:52:22;;;;;;;10.13;5.43;;;15.40;95.40;;;;;;5065072;28;20564;-75
2023/05/29 01:55:11;;;;;;;7.45;5.50;;;15.40;95.60;;;;;;5060437;28;20228;-75
2023/05/29 01:58:03;;;;;;;9.25;5.38;;;15.40;95.50;;;;;;5058977;28;20292;-74
2023/05/29 02:00:54;;;;;;;14.05;5.47;;;15.30;95.50;;;;;;5076880;28;20216;-73
2023/05/29 02:03:48;;;;;;;13.77;5.50;;;15.20;96.00;;;;;;5061838;28;20226;-77
2023/05/29 02:06:37;;;;;;;11.85;5.68;;;15.20;96.60;;;;;;5065078;28;20227;-78
2023/05/29 02:09:26;;;;;;;9.95;5.40;;;15.30;97.40;;;;;;5063768;28;20797;-78
2023/05/29 02:12:15;;;;;;;11.82;5.93;;;15.20;97.70;;;;;;5077458;28;20216;-79
2023/05/29 02:15:04;;;;;;;10.90;5.38;;;15.20;98.60;;;;;;5062663;28;20255;-78
2023/05/29 02:17:55;;;;;;;10.18;5.88;;;15.20;99.10;;;;;;5061366;28;20220;-78
2023/05/29 02:20:44;;;;;;;12.45;5.45;;;15.20;98.50;;;;;;5062211;28;20750;-79
2023/05/29 02:23:39;;;;;;;12.40;5.68;;;15.20;98.40;;;;;;5059874;28;20312;-77
2023/05/29 02:26:28;;;;;;;9.85;4.93;;;15.20;98.50;;;;;;5061221;28;20231;-77
2023/05/29 02:29:17;;;;;;;14.90;5.88;;;15.20;97.20;;;;;;5057087;28;20701;-76
2023/05/29 02:32:07;;;;;;;13.07;6.00;;;15.20;97.30;;;;;;5057144;28;20232;-79
2023/05/29 02:35:01;;;;;;;13.98;5.95;;;15.10;97.80;;;;;;5063422;28;20252;-78
2023/05/29 02:37:50;;;;;;;12.82;5.78;;;15.00;97.60;;;;;;5059676;28;20334;-80
2023/05/29 02:40:39;;;;;;;11.48;6.03;;;15.10;98.00;;;;;;5058258;28;20293;-81
2023/05/29 02:43:28;;;;;;;11.27;5.78;;;15.00;98.00;;;;;;5056034;28;20635;-82
2023/05/29 02:46:17;;;;;;;14.35;5.88;;;14.90;98.10;;;;;;5058701;28;20876;-82
2023/05/29 02:49:05;;;;;;;11.10;5.70;;;15.00;97.90;;;;;;5066233;28;20721;-82
2023/05/29 02:51:56;;;;;;;10.98;5.50;;;14.90;97.50;;;;;;5057462;28;20242;-83
2023/05/29 02:54:45;;;;;;;13.33;6.10;;;14.90;98.20;;;;;;5017836;28;1136961;-80
2023/05/29 02:57:34;;;;;;;11.50;5.32;;;14.90;97.90;;;;;;5045505;28;20707;-80
2023/05/29 03:00:23;;;;;;;13.65;5.93;;;15.00;98.00;;;;;;5056859;28;20287;-80
2023/05/29 03:03:14;;;;;;;16.05;6.22;;;15.00;98.10;;;;;;5065473;28;20776;-80
2023/05/29 03:06:03;;;;;;;11.82;5.72;;;15.00;98.30;;;;;;5055210;28;20232;-81
2023/05/29 03:08:56;;;;;;;12.68;6.10;;;15.00;98.70;;;;;;5063651;28;20212;-78
2023/05/29 03:11:47;;;;;;;12.68;6.97;;;15.00;98.80;;;;;;5055526;28;20257;-80
2023/05/29 03:14:36;;;;;;;15.75;6.80;;;15.00;99.00;;;;;;5066720;28;20227;-80
2023/05/29 03:17:30;;;;;;;15.63;6.50;;;15.00;99.00;;;;;;5060554;28;20734;-79
2023/05/29 03:20:19;;;;;;;12.75;6.47;;;15.10;99.10;;;;;;5064153;28;20279;-78
2023/05/29 03:23:10;;;;;;;17.52;6.60;;;15.10;99.30;;;;;;5065404;28;20216;-79
2023/05/29 03:26:00;;;;;;;13.95;6.70;;;15.20;99.20;;;;;;5061419;28;20307;-79
2023/05/29 03:28:50;;;;;;;13.05;6.85;;;15.10;99.00;;;;;;5055672;28;20223;-80
2023/05/29 03:31:39;;;;;;;9.35;6.32;;;15.30;99.30;;;;;;5057223;28;20358;-80
2023/05/29 03:34:29;;;;;;;14.68;6.78;;;15.40;99.30;;;;;;5063720;28;20232;-81
2023/05/29 03:37:19;;;;;;;11.52;6.53;;;15.40;99.10;;;;;;5065734;28;20216;-77
2023/05/29 03:40:10;;;;;;;16.10;6.80;;;15.60;99.10;;;;;;5059381;28;20244;-76
2023/05/29 03:43:01;;;;;;;14.43;7.20;;;15.70;98.80;;;;;;5057569;28;20589;-79
2023/05/29 03:45:50;;;;;;;10.52;6.70;;;15.70;98.70;;;;;;5057954;28;20696;-79
2023/05/29 03:48:39;;;;;;;11.90;6.85;;;15.70;98.60;;;;;;5055599;28;20850;-80
2023/05/29 03:51:30;;;;;;;13.63;6.93;;;15.80;98.50;;;;;;5070640;28;20220;-82
2023/05/29 03:54:19;;;;;;;12.27;6.72;;;15.80;98.50;;;;;;5057517;28;20616;-83
2023/05/29 03:57:08;;;;;;;13.63;7.15;;;15.90;98.60;;;;;;5065016;28;20316;-81
2023/05/29 03:59:59;;;;;;;14.27;7.25;;;16.00;98.40;;;;;;5061599;28;20243;-82
2023/05/29 04:02:48;;;;;;;11.27;6.80;;;16.10;98.10;;;;;;5062248;28;20216;-84
2023/05/29 04:05:37;;;;;;;12.00;6.43;;;16.10;97.90;;;;;;5066906;28;20334;-83
2023/05/29 04:08:26;;;;;;;13.23;6.90;;;16.20;97.60;;;;;;5065086;28;20220;-83
2023/05/29 04:11:15;;;;;;;13.27;6.53;;;16.30;97.40;;;;;;5058205;28;20314;-87
2023/05/29 04:14:04;;;;;;;12.30;5.90;;;16.40;97.20;;;;;;5073398;28;20706;-92
2023/05/29 04:16:55;;;;;;;15.70;7.53;;;16.50;97.10;;;;;;5067153;28;20224;-82
2023/05/29 04:19:44;;;;;;;11.82;6.47;;;16.50;97.00;;;;;;5059077;28;20231;-82
2023/05/29 04:22:33;;;;;;;14.30;6.25;;;16.60;97.00;;;;;;5064396;28;20334;-82
2023/05/29 04:25:23;;;;;;;12.48;6.10;;;16.70;96.90;;;;;;5049447;28;20316;-80
2023/05/29 04:28:12;;;;;;;15.70;6.05;;;16.70;96.70;;;;;;5063966;28;20208;-84
2023/05/29 04:31:02;;;;;;;14.13;5.65;;;16.70;96.00;;;;;;5063150;28;20583;-81
2023/05/29 04:33:54;;;;;;;12.45;6.50;;;16.80;96.40;;;;;;5036000;28;20232;-80
2023/05/29 04:36:44;;;;;;;10.27;5.45;;;16.90;96.30;;;;;;5056416;28;20365;-81
2023/05/29 04:39:35;;;;;;;10.43;5.45;;;17.00;95.10;;;;;;5055243;28;20236;-80
2023/05/29 04:42:24;;;;;;;9.85;5.20;;;17.00;94.80;;;;;;5038242;28;20472;-81
2023/05/29 04:45:14;;;;;;;11.20;5.43;;;17.20;94.20;;;;;;5052708;28;21087;-81
2023/05/29 04:48:03;;;;;;;9.82;5.03;;;17.30;93.40;;;;;;5063531;28;20228;-84
2023/05/29 04:50:54;;;;;;;11.18;4.50;;;17.30;92.10;;;;;;5060251;28;20232;-81
2023/05/29 04:53:44;;;;;;;7.20;4.35;;;17.40;92.50;;;;;;5051912;28;20216;-76
2023/05/29 04:56:33;;;;;;;8.07;4.45;;;17.60;92.60;;;;;;5054323;28;20236;-82
2023/05/29 04:59:22;;;;;;;9.88;4.20;;;17.70;91.90;;;;;;5056609;28;20235;-81
2023/05/29 05:02:11;;;;;;;9.13;3.83;;;17.80;91.60;;;;;;5054995;28;20246;-81
2023/05/29 05:05:01;;;;;;;8.05;3.70;;;17.80;90.10;;;;;;5057080;28;20220;-81
2023/05/29 05:07:51;;;;;;;11.35;3.55;;;17.90;89.00;;;;;;5048662;28;20957;-82
2023/05/29 05:10:41;;;;;;;9.00;3.58;;;18.10;89.80;;;;;;5052800;28;20236;-80
2023/05/29 05:13:30;;;;;;;14.82;5.45;;;18.30;90.70;;;;;;5060369;28;20806;-81
2023/05/29 05:16:20;;;;;;;12.98;5.47;;;18.40;90.50;;;;;;5058729;28;20286;-79
2023/05/29 05:19:09;;;;;;;11.80;5.80;;;18.50;90.90;;;;;;5055568;28;20219;-78
2023/05/29 05:22:00;;;;;;;14.43;5.60;;;18.60;91.40;;;;;;5059304;28;20767;-78
2023/05/29 05:24:55;;;;;;;7.82;3.75;;;18.70;90.70;;;;;;5051661;28;20224;-78
2023/05/29 05:27:45;;;;;;;13.73;3.75;;;18.70;84.80;;;;;;5051699;28;20299;-74
2023/05/29 05:30:35;;;;;;;9.45;3.20;;;18.90;83.60;;;;;;5051130;28;20255;-74
2023/05/29 05:33:23;;;;;;;6.55;3.22;;;19.40;81.30;;;;;;5055109;28;20228;-78
2023/05/29 05:36:16;;;;;;;8.30;2.92;;;20.00;79.00;;;;;;5052992;28;20266;-78
2023/05/29 05:39:06;;;;;;;8.20;3.25;;;20.80;78.80;;;;;;5064157;28;20301;-77
2023/05/29 05:41:56;;;;;;;9.50;4.22;;;21.20;75.50;;;;;;5049296;28;20285;-78
2023/05/29 05:45:09;;;;;;;11.05;4.63;;;20.90;75.70;;;;;;5058515;28;20242;-79
2023/05/29 05:47:59;;;;;;;10.65;3.40;;;20.20;76.80;;;;;;5056268;28;20216;-75
2023/05/29 05:50:48;;;;;;;8.15;3.10;;;19.90;80.50;;;;;;5052217;28;20247;-80
2023/05/29 05:53:38;;;;;;;11.52;2.97;;;19.90;80.30;;;;;;5059399;28;20718;-77
2023/05/29 05:56:27;;;;;;;10.75;3.33;;;19.90;80.60;;;;;;5053332;28;20224;-74
2023/05/29 05:59:17;;;;;;;7.47;3.00;;;20.00;81.30;;;;;;5057820;28;20223;-76
2023/05/29 06:02:06;;;;;;;6.18;2.72;;;20.10;78.90;;;;;;5061137;28;20220;-79
2023/05/29 06:04:57;;;;;;;7.65;2.80;;;20.70;76.40;;;;;;5058045;28;20715;-79
2023/05/29 06:07:46;;;;;;;4.50;2.53;;;20.80;76.80;;;;;;5057810;28;20231;-76
2023/05/29 06:10:35;;;;;;;9.30;2.78;;;20.50;74.50;;;;;;5060761;28;20228;-81
2023/05/29 06:13:25;;;;;;;7.03;2.33;;;20.40;75.00;;;;;;5056429;28;20309;-76
2023/05/29 06:16:20;;;;;;;7.10;2.88;;;20.40;77.80;;;;;;5060680;28;20216;-81
2023/05/29 06:19:10;;;;;;;7.75;2.50;;;20.50;76.40;;;;;;5051677;28;20213;-80
2023/05/29 06:22:17;;;;;;;8.90;2.25;;;20.40;74.80;;;;;;5062739;28;20594;-74
2023/05/29 06:25:07;;;;;;;7.65;2.30;;;20.40;74.30;;;;;;5065161;28;20560;-83
2023/05/29 06:27:57;;;;;;;6.55;2.20;;;20.40;73.30;;;;;;5059262;28;20238;-77
2023/05/29 06:30:46;;;;;;;7.10;2.30;;;20.50;72.50;;;;;;5056735;28;20220;-73
2023/05/29 06:33:37;;;;;;;6.05;2.30;;;20.40;72.60;;;;;;5060616;28;20231;-74
2023/05/29 06:36:32;;;;;;;3.60;1.88;;;20.50;71.70;;;;;;5066174;28;20228;-74
2023/05/29 06:39:21;;;;;;;9.35;2.40;;;20.70;70.60;;;;;;5051345;28;20273;-76
2023/05/29 06:42:10;;;;;;;8.15;2.63;;;21.00;70.00;;;;;;5057301;28;20705;-73
2023/05/29 06:45:03;;;;;;;5.45;1.65;;;21.40;72.30;;;;;;5064011;28;20242;-75
2023/05/29 06:47:52;;;;;;;4.70;1.60;;;21.50;69.90;;;;;;5039047;28;20220;-73
2023/05/29 06:50:42;;;;;;;3.63;1.75;;;21.30;68.00;;;;;;5064237;28;20225;-72
2023/05/29 06:53:54;;;;;;;8.85;2.20;;;21.30;68.70;;;;;;5064757;28;20616;-71
2023/05/29 06:56:44;;;;;;;6.13;2.40;;;21.20;68.50;;;;;;5057263;28;20235;-72
2023/05/29 06:59:43;;;;;;;5.30;1.98;;;21.40;70.10;;;;;;5054391;28;20236;-73
2023/05/29 07:02:32;;;;;;;3.90;2.17;;;21.40;70.20;;;;;;5057773;28;20236;-70
2023/05/29 07:05:20;;;;;;;8.57;2.53;;;21.60;69.50;;;;;;5063268;28;20216;-72
2023/05/29 07:08:11;;;;;;;6.03;2.35;;;21.90;69.60;;;;;;5063931;28;20421;-73
2023/05/29 07:10:59;;;;;;;8.93;2.85;;;22.10;69.90;;;;;;5054457;28;20319;-74
2023/05/29 07:13:48;;;;;;;12.57;3.03;;;22.20;69.70;;;;;;5065728;28;20236;-72
2023/05/29 07:16:37;;;;;;;7.85;2.33;;;22.50;69.90;;;;;;5059294;28;20231;-75
2023/05/29 07:19:29;;;;;;;5.20;2.08;;;22.50;65.10;;;;;;5057153;28;24855;-74
2023/05/29 07:22:18;;;;;;;10.30;2.35;;;22.60;67.10;;;;;;5063959;28;20244;-75
2023/05/29 07:25:09;;;;;;;4.80;2.25;;;22.50;64.90;;;;;;5058337;28;20227;-74
2023/05/29 07:27:58;;;;;;;12.50;2.58;;;23.20;63.40;;;;;;5059818;28;20285;-72
2023/05/29 07:31:07;;;;;;;10.48;2.72;;;23.50;65.90;;;;;;5061205;28;21324;-72
2023/05/29 07:33:56;;;;;;;8.23;2.25;;;24.20;65.10;;;;;;5055614;28;20973;-71
2023/05/29 07:36:59;;;;;;;8.40;2.10;;;24.30;59.80;;;;;;5059522;28;20242;-70
2023/05/29 07:39:49;;;;;;;10.07;2.20;;;24.30;61.30;;;;;;5063695;28;20224;-69
2023/05/29 07:42:57;;;;;;;4.35;1.65;;;24.00;58.20;;;;;;5057089;28;20224;-71
2023/05/29 07:45:53;;;;;;;4.22;1.90;;;24.70;57.80;;;;;;5073193;28;20224;-73
2023/05/29 07:48:45;;;;;;;3.95;1.83;;;25.30;57.50;;;;;;5058167;28;20227;-72
2023/05/29 07:51:38;;;;;;;7.05;2.00;;;25.50;56.10;;;;;;5056940;28;20311;-67
2023/05/29 07:54:27;;;;;;;4.28;1.45;;;25.70;55.10;;;;;;5055181;28;20247;-72
2023/05/29 07:57:16;;;;;;;7.95;1.88;;;25.90;54.90;;;;;;5056283;28;20226;-72
2023/05/29 08:00:09;;;;;;;2.60;1.48;;;;;;;;;;5049489;28;20286;-73
2023/05/29 08:03:06;;;;;;;4.00;1.40;;;26.70;52.30;;;;;;5057500;28;20288;-72
2023/05/29 08:06:15;;;;;;;14.20;1.90;;;26.90;54.50;;;;;;5048891;28;20224;-72
2023/05/29 08:09:05;;;;;;;3.15;1.60;;;27.30;52.30;;;;;;5050164;28;20231;-72
2023/05/29 08:11:55;;;;;;;6.75;2.00;;;27.40;51.80;;;;;;5049322;28;20219;-73
2023/05/29 08:14:43;;;;;;;7.38;2.03;;;27.50;52.80;;;;;;5064261;28;20232;-77
2023/05/29 08:17:34;;;;;;;3.75;1.83;;;27.50;52.80;;;;;;5050160;28;20239;-72
2023/05/29 08:20:22;;;;;;;4.47;2.00;;;27.50;52.30;;;;;;5035466;28;20236;-71
2023/05/29 08:23:12;;;;;;;6.72;2.40;;;27.70;52.30;;;;;;5039829;28;20334;-70
2023/05/29 08:26:02;;;;;;;9.75;2.83;;;28.00;52.20;;;;;;5047610;28;20306;-76
2023/05/29 08:28:51;;;;;;;8.07;2.67;;;27.80;51.60;;;;;;5057101;28;20227;-83
2023/05/29 08:31:44;;;;;;;6.05;2.30;;;27.60;51.00;;;;;;5054538;28;20719;-85
2023/05/29 08:34:34;;;;;;;3.83;2.30;;;28.00;52.20;;;;;;5056982;28;20216;-73
2023/05/29 08:37:23;;;;;;;8.75;2.80;;;28.30;52.20;;;;;;5059306;28;20814;-74
2023/05/29 08:40:12;;;;;;;8.52;2.78;;;27.80;51.00;;;;;;5057760;28;20265;-74
2023/05/29 08:43:08;;;;;;;8.57;2.30;;;28.10;51.00;;;;;;5047440;28;20315;-74
2023/05/29 08:46:01;;;;;;;6.75;2.47;;;28.60;53.00;;;;;;5057251;28;20261;-74
2023/05/29 08:48:50;;;;;;;6.88;2.38;;;27.80;50.40;;;;;;5047060;28;20652;-73
2023/05/29 08:51:44;;;;;;;9.73;2.55;;;28.30;53.00;;;;;;5054970;28;20250;-73
2023/05/29 08:54:37;;;;;;;7.28;2.80;;;28.80;53.30;;;;;;5060201;28;20254;-74
2023/05/29 08:57:28;;;;;;;13.57;2.75;;;29.10;50.80;;;;;;5059436;28;20224;-73
2023/05/29 09:00:20;;;;;;;11.13;2.95;;;29.10;50.70;;;;;;5059991;28;20231;-73
2023/05/29 09:03:09;;;;;;;11.27;2.80;;;29.40;51.00;;;;;;5060774;28;20433;-74
2023/05/29 09:06:00;;;;;;;18.00;3.75;;;29.30;51.00;;;;;;5060429;28;20224;-74
2023/05/29 09:08:52;;;;;;;8.00;3.22;;;29.70;51.10;;;;;;5055921;28;20216;-73
2023/05/29 09:11:41;;;;;;;7.28;2.05;;;29.90;51.90;;;;;;5060812;28;20242;-74
2023/05/29 09:14:36;;;;;;;5.47;2.20;;;30.20;50.10;;;;;;5063173;28;20793;-74
2023/05/29 09:17:31;;;;;;;10.57;2.70;;;30.10;49.90;;;;;;5047508;28;20246;-73
2023/05/29 09:20:22;;;;;;;9.05;2.67;;;29.50;49.40;;;;;;5060884;28;20226;-74
2023/05/29 09:23:11;;;;;;;5.97;2.75;;;29.40;50.90;;;;;;5058213;28;20217;-73
2023/05/29 09:26:04;;;;;;;8.70;2.60;;;29.40;48.30;;;;;;5049747;28;20373;-73
2023/05/29 09:28:53;;;;;;;12.57;2.92;;;29.90;50.30;;;;;;5068424;28;20234;-72
2023/05/29 09:31:47;;;;;;;6.45;2.47;;;30.40;50.50;;;;;;5058253;28;20211;-73
2023/05/29 09:34:37;;;;;;;7.55;2.85;;;30.70;46.20;;;;;;5062898;28;20243;-73
2023/05/29 09:37:26;;;;;;;11.68;2.50;;;31.40;50.30;;;;;;5058771;28;20224;-74
2023/05/29 09:40:15;;;;;;;5.35;2.22;;;31.80;49.20;;;;;;5066287;28;20242;-74
2023/05/29 09:43:10;;;;;;;8.70;2.58;;;32.40;47.40;;;;;;5052043;28;20224;-73
2023/05/29 09:45:59;;;;;;;7.85;3.00;;;32.50;46.50;;;;;;5054136;28;20746;-73
2023/05/29 09:48:49;;;;;;;5.32;2.95;;;32.50;46.70;;;;;;5053557;28;20846;-73
2023/05/29 09:51:39;;;;;;;4.90;2.63;;;32.80;45.30;;;;;;5062265;28;20738;-72
2023/05/29 09:54:29;;;;;;;9.95;2.97;;;33.50;46.50;;;;;;5070749;28;20224;-72
2023/05/29 09:57:23;;;;;;;8.65;3.00;;;33.90;44.60;;;;;;5058514;28;20289;-74
2023/05/29 10:00:14;;;;;;;8.15;2.95;;;34.60;44.40;;;;;;5063089;28;20243;-73
2023/05/29 10:03:03;;;;;;;8.48;2.83;;;35.20;42.50;;;;;;5055062;28;20245;-73
2023/05/29 10:05:56;;;;;;;5.20;3.08;;;35.50;43.70;;;;;;5060678;28;20590;-73
2023/05/29 10:08:49;;;;;;;9.13;2.97;;;35.40;40.70;;;;;;5065052;28;20710;-73
2023/05/29 10:11:41;;;;;;;6.18;2.38;;;34.90;41.50;;;;;;5064654;28;20320;-73
2023/05/29 10:14:33;;;;;;;9.27;3.10;;;35.50;41.00;;;;;;5061156;28;20572;-74
2023/05/29 10:17:27;;;;;;;10.70;2.60;;;36.60;41.70;;;;;;5055888;28;20223;-73
2023/05/29 10:20:18;;;;;;;7.90;3.00;;;37.50;41.80;;;;;;5057618;28;20223;-73
2023/05/29 10:23:08;;;;;;;7.50;2.90;;;38.80;41.80;;;;;;5062187;28;20212;-73
2023/05/29 10:26:04;;;;;;;7.82;2.90;;;39.60;40.40;;;;;;5063270;28;20930;-73
2023/05/29 10:29:02;;;;;;;6.85;2.97;;;39.90;38.20;;;;;;5062070;28;20728;-74
2023/05/29 10:32:05;;;;;;;5.55;2.97;;;39.60;39.20;;;;;;5061937;28;20223;-74
2023/05/29 10:35:09;;;;;;;7.28;3.03;;;39.90;39.40;;;;;;5053949;28;20800;-74
2023/05/29 10:38:03;;;;;;;13.00;3.15;;;40.80;39.10;;;;;;5060328;28;20278;-74
2023/05/29 10:40:52;;;;;;;5.97;2.80;;;41.30;38.20;;;;;;5056465;28;20677;-74
2023/05/29 10:43:43;;;;;;;9.25;2.90;;;41.60;37.30;;;;;;5055209;28;20278;-73
2023/05/29 10:47:02;;;;;;;5.70;2.63;;;41.70;37.20;;;;;;5052395;28;20224;-74
2023/05/29 10:49:52;;;;;;;7.47;2.60;;;42.40;36.70;;;;;;5064105;28;20242;-74
2023/05/29 10:52:47;;;;;;;13.68;3.00;;;42.90;37.60;;;;;;5055725;28;20258;-74
2023/05/29 10:55:36;;;;;;;7.53;2.45;;;43.30;37.40;;;;;;5062440;28;20810;-74
2023/05/29 10:58:27;;;;;;;7.35;2.42;;;43.00;36.50;;;;;;5064001;28;20770;-74
2023/05/29 11:01:16;;;;;;;6.43;2.38;;;42.30;35.00;;;;;;5057225;28;20307;-74
2023/05/29 11:04:31;;;;;;;5.65;2.67;;;42.40;37.00;;;;;;5063112;28;20320;-73
2023/05/29 11:07:34;;;;;;;9.60;2.78;;;43.50;35.60;;;;;;5056326;28;20305;-73
2023/05/29 11:10:52;;;;;;;6.00;2.42;;;44.00;35.60;;;;;;5057094;28;20260;-74
2023/05/29 11:13:53;;;;;;;14.48;3.00;;;44.70;35.00;;;;;;5059144;28;20235;-73
2023/05/29 11:16:42;;;;;;;7.75;2.58;;;43.90;34.40;;;;;;5062555;28;20285;-74
2023/05/29 11:19:31;;;;;;;8.55;3.00;;;40.30;35.10;;;;;;5059337;28;20305;-72
2023/05/29 11:22:24;;;;;;;7.50;3.03;;;39.20;36.00;;;;;;5054835;28;20219;-74
2023/05/29 11:25:14;;;;;;;8.60;3.00;;;35.50;39.00;;;;;;5060302;28;20311;-74
2023/05/29 11:28:08;;;;;;;8.15;3.17;;;34.40;41.00;;;;;;5062561;28;20638;-74
2023/05/29 11:31:02;;;;;;;6.63;2.70;;;33.20;42.60;;;;;;5060758;28;20222;-73
2023/05/29 11:33:53;;;;;;;6.65;3.28;;;31.60;42.90;;;;;;5060960;28;20228;-74
2023/05/29 11:36:43;;;;;;;11.50;3.35;;;30.80;42.90;;;;;;5061939;28;20326;-74
2023/05/29 11:39:40;;;;;;;8.48;3.72;;;30.20;44.90;;;;;;5041180;28;20219;-74
2023/05/29 11:42:29;;;;;;;9.50;3.38;;;29.60;46.00;;;;;;5054811;28;20236;-74
2023/05/29 11:45:20;;;;;;;8.25;2.97;;;29.30;47.30;;;;;;5054281;28;20277;-73
2023/05/29 11:48:11;;;;;;;12.48;3.53;;;29.40;49.20;;;;;;5059485;28;21233;-75
2023/05/29 11:51:03;;;;;;;14.38;3.50;;;29.10;48.60;;;;;;5056865;28;20227;-71
2023/05/29 11:53:58;;;;;;;7.30;3.35;;;28.80;47.80;;;;;;5058437;28;20302;-72
2023/05/29 11:56:48;;;;;;;9.00;3.40;;;28.30;49.50;;;;;;5072287;28;20234;-74
2023/05/29 11:59:40;;;;;;;12.13;3.55;;;28.20;49.40;;;;;;5066219;28;20325;-74
2023/05/29 12:02:32;;;;;;;7.35;3.47;;;27.80;48.30;;;;;;5056616;28;20242;-73
2023/05/29 12:05:23;;;;;;;8.95;3.45;;;27.40;49.40;;;;;;5052650;28;20239;-71
2023/05/29 12:08:12;;;;;;;11.55;3.35;;;27.00;49.80;;;;;;5063880;28;20247;-74
2023/05/29 12:11:01;;;;;;;6.85;3.63;;;27.10;51.40;;;;;;5042454;28;20215;-75
2023/05/29 12:14:00;;;;;;;8.05;3.60;;;27.40;50.50;;;;;;5061276;28;20230;-73
2023/05/29 12:16:50;;;;;;;8.35;3.30;;;31.80;47.50;;;;;;5073909;28;20226;-73
2023/05/29 12:19:39;;;;;;;9.98;3.33;;;37.80;43.80;;;;;;5047826;28;20218;-73
2023/05/29 12:22:36;;;;;;;9.07;3.35;;;42.10;39.50;;;;;;5076070;28;20275;-73
2023/05/29 12:25:25;;;;;;;10.70;3.15;;;45.50;34.90;;;;;;5061981;28;20271;-73
2023/05/29 12:28:18;;;;;;;8.77;3.08;;;47.20;34.50;;;;;;5048027;28;20273;-74
2023/05/29 12:31:08;;;;;;;7.63;3.00;;;47.60;31.80;;;;;;5041492;28;20259;-73
2023/05/29 12:34:01;;;;;;;6.88;2.85;;;39.50;34.20;;;;;;5044143;28;20224;-78
2023/05/29 12:36:50;;;;;;;6.32;2.90;;;34.40;37.20;;;;;;5076645;28;20331;-76
2023/05/29 12:39:40;;;;;;;9.70;2.83;;;33.40;40.70;;;;;;5061975;28;20261;-73
2023/05/29 12:42:30;;;;;;;6.10;2.60;;;31.40;42.20;;;;;;5048076;28;20228;-75
2023/05/29 12:45:19;;;;;;;4.88;2.80;;;33.60;42.50;;;;;;5080504;28;20717;-74
2023/05/29 12:48:10;;;;;;;10.68;3.17;;;35.10;42.10;;;;;;5084400;28;20227;-74
2023/05/29 12:51:07;;;;;;;5.72;2.83;;;32.00;42.10;;;;;;5063652;28;20348;-75
2023/05/29 12:53:58;;;;;;;6.85;2.70;;;30.00;43.50;;;;;;5068560;28;20471;-74
2023/05/29 12:56:50;;;;;;;7.38;3.20;;;29.00;46.00;;;;;;5046310;28;20291;-74
2023/05/29 12:59:40;;;;;;;6.13;2.70;;;29.00;47.70;;;;;;5064465;28;20360;-73
2023/05/29 13:02:30;;;;;;;9.07;2.90;;;29.00;48.10;;;;;;5065208;28;21873;-76
2023/05/29 13:05:22;;;;;;;5.63;2.80;;;28.50;47.40;;;;;;5069640;28;20218;-76
2023/05/29 13:08:14;;;;;;;6.15;2.83;;;28.20;49.20;;;;;;5057671;28;20709;-74
2023/05/29 13:11:03;;;;;;;8.20;2.75;;;;;;;;;;5071100;28;20223;-73
2023/05/29 13:13:53;;;;;;;11.82;2.60;;;27.60;48.30;;;;;;5067920;28;20223;-75
2023/05/29 13:16:42;;;;;;;6.47;2.67;;;27.30;48.80;;;;;;5059753;28;20219;-71
2023/05/29 13:19:31;;;;;;;6.18;3.13;;;27.50;50.40;;;;;;5055047;28;20230;-74
2023/05/29 13:22:20;;;;;;;4.03;2.60;;;27.80;52.20;;;;;;5061799;28;20728;-74
2023/05/29 13:25:13;;;;;;;4.32;2.58;;;27.70;51.10;;;;;;5061210;28;20231;-75
2023/05/29 13:28:02;;;;;;;9.82;3.00;;;27.40;49.60;;;;;;5080123;28;20300;-75
2023/05/29 13:30:53;;;;;;;7.97;2.92;;;27.00;49.90;;;;;;5079495;28;20820;-74
2023/05/29 13:33:42;;;;;;;5.03;2.72;;;27.00;50.40;;;;;;5079613;28;20772;-75
2023/05/29 13:36:31;;;;;;;8.02;2.80;;;26.60;49.90;;;;;;5083888;28;20222;-77
2023/05/29 13:39:19;;;;;;;7.47;2.72;;;26.60;50.20;;;;;;5067511;28;20260;-75
2023/05/29 13:42:09;;;;;;;7.45;2.70;;;26.50;50.00;;;;;;5080819;28;20226;-75
2023/05/29 13:44:58;;;;;;;5.50;2.50;;;26.40;49.70;;;;;;5071417;28;20241;-75
2023/05/29 13:47:48;;;;;;;4.78;2.13;;;26.40;51.00;;;;;;5071680;28;20226;-74
2023/05/29 13:50:37;;;;;;;12.65;3.20;;;26.20;50.50;;;;;;5057421;28;20726;-75
2023/05/29 13:53:26;;;;;;;3.63;2.50;;;26.00;51.90;;;;;;5065667;28;20311;-74
2023/05/29 13:56:15;;;;;;;7.85;2.83;;;26.00;51.00;;;;;;5062982;28;20223;-76
2023/05/29 13:59:05;;;;;;;4.72;2.33;;;26.00;51.50;;;;;;5065041;28;20227;-76
2023/05/29 14:01:54;;;;;;;4.53;2.55;;;26.00;52.50;;;;;;5056104;28;20897;-77
2023/05/29 14:04:45;;;;;;;5.93;2.53;;;26.00;52.00;;;;;;5076089;28;20234;-76
2023/05/29 14:07:33;;;;;;;7.13;2.90;;;25.90;53.40;;;;;;5068099;28;20230;-76
2023/05/29 14:10:23;;;;;;;5.45;2.47;;;26.00;53.20;;;;;;5076183;28;20219;-75
2023/05/29 14:13:14;;;;;;;6.13;2.80;;;25.90;52.00;;;;;;5076913;28;20354;-73
2023/05/29 14:16:02;;;;;;;4.75;2.80;;;25.80;52.90;;;;;;5082334;28;20555;-77
2023/05/29 14:18:52;;;;;;;5.75;2.75;;;25.60;51.60;;;;;;5069201;28;20257;-76
2023/05/29 14:21:42;;;;;;;5.05;2.60;;;25.50;52.20;;;;;;5066333;28;20227;-76
2023/05/29 14:24:31;;;;;;;6.07;2.45;;;25.50;51.80;;;;;;5081592;28;20238;-75
2023/05/29 14:27:20;;;;;;;6.47;2.70;;;25.50;52.70;;;;;;5079055;28;20300;-76
2023/05/29 14:30:12;;;;;;;10.07;2.42;;;25.70;52.70;;;;;;5066845;28;20231;-74
2023/05/29 14:33:01;;;;;;;5.72;2.45;;;25.50;52.30;;;;;;5072942;28;20572;-76
2023/05/29 14:35:50;;;;;;;4.30;2.40;;;25.50;52.00;;;;;;5078687;28;20227;-75
2023/05/29 14:38:41;;;;;;;6.47;2.92;;;25.70;52.10;;;;;;5046094;28;20230;-75
2023/05/29 14:41:29;;;;;;;6.68;2.97;;;25.90;53.60;;;;;;5081906;28;20319;-76
2023/05/29 14:44:18;;;;;;;5.68;2.55;;;25.90;52.90;;;;;;5070642;28;20223;-76
2023/05/29 14:47:07;;;;;;;5.15;3.05;;;25.80;53.90;;;;;;5055032;28;20216;-76